createdAt,value
2019-01-03T00:02:18.406Z,99.90
2019-01-03T00:05:08.722Z,99.90
2019-01-03T00:07:46.014Z,99.90
2019-01-03T00:10:18.727Z,99.90
2019-01-03T00:13:06.087Z,99.90
2019-01-03T00:15:55.172Z,99.90
2019-01-03T00:18:42.570Z,99.90
2019-01-03T00:21:31.894Z,99.90
2019-01-03T00:24:13.248Z,99.90
2019-01-03T00:26:53.599Z,99.90
2019-01-03T00:29:38.013Z,99.90
2019-01-03T00:32:16.367Z,99.90
2019-01-03T00:34:54.453Z,99.90
2019-01-03T00:37:26.007Z,99.90
2019-01-03T00:40:01.445Z,99.90
2019-01-03T00:42:36.697Z,99.90
2019-01-03T00:45:08.354Z,99.90
2019-01-03T00:47:45.965Z,99.90
2019-01-03T00:50:34.298Z,99.90
2019-01-03T00:53:11.437Z,99.90
2019-01-03T00:55:43.014Z,99.90
2019-01-03T00:58:15.628Z,99.90
2019-01-03T01:00:48.300Z,99.90
2019-01-03T01:03:35.693Z,99.90
2019-01-03T01:06:11.206Z,99.90
2019-01-03T01:08:55.460Z,99.90
2019-01-03T01:11:28.005Z,99.90
2019-01-03T01:14:15.205Z,99.90
2019-01-03T01:16:47.761Z,99.90
2019-01-03T01:19:26.373Z,99.90
2019-01-03T01:22:07.565Z,99.90
2019-01-03T01:24:50.694Z,99.90
2019-01-03T01:27:23.976Z,99.90
2019-01-03T01:30:10.549Z,99.90
2019-01-03T01:32:43.134Z,99.90
2019-01-03T01:35:15.785Z,99.90
2019-01-03T01:38:03.486Z,99.90
2019-01-03T01:40:36.005Z,99.90
2019-01-03T01:43:23.834Z,99.90
2019-01-03T01:46:11.294Z,99.90
2019-01-03T01:48:44.645Z,99.90
2019-01-03T01:51:23.536Z,99.90
2019-01-03T01:54:13.007Z,99.90
2019-01-03T01:57:02.245Z,99.90
2019-01-03T01:59:39.593Z,99.90
2019-01-03T02:02:28.165Z,99.90
2019-01-03T02:05:06.206Z,99.90
2019-01-03T02:07:44.314Z,99.90
2019-01-03T02:10:29.007Z,99.90
2019-01-03T02:13:15.395Z,99.90
2019-01-03T02:15:47.996Z,99.90
2019-01-03T02:18:19.501Z,99.90
2019-01-03T02:21:08.369Z,99.90
2019-01-03T02:23:52.562Z,99.90
2019-01-03T02:26:34.196Z,99.90
2019-01-03T02:29:24.676Z,99.90
2019-01-03T02:31:57.798Z,99.90
2019-01-03T02:34:46.441Z,99.90
2019-01-03T02:37:24.618Z,99.90
2019-01-03T02:40:13.276Z,99.90
2019-01-03T02:42:51.445Z,99.90
2019-01-03T02:45:27.631Z,99.90
2019-01-03T02:48:03.016Z,99.90
2019-01-03T02:50:34.402Z,99.90
2019-01-03T02:53:25.133Z,99.90
2019-01-03T02:55:57.809Z,99.90
2019-01-03T02:58:31.910Z,99.90
2019-01-03T03:01:13.541Z,99.90
2019-01-03T03:03:57.598Z,99.90
2019-01-03T03:06:42.316Z,99.90
2019-01-03T03:09:19.622Z,99.90
2019-01-03T03:12:04.207Z,99.90
2019-01-03T03:14:36.836Z,99.90
2019-01-03T03:17:21.133Z,99.90
2019-01-03T03:20:02.683Z,99.90
2019-01-03T03:22:38.117Z,99.90
2019-01-03T03:25:12.537Z,99.90
2019-01-03T03:28:01.225Z,99.90
2019-01-03T03:30:38.463Z,99.90
2019-01-03T03:33:11.075Z,99.90
2019-01-03T03:35:59.758Z,99.90
2019-01-03T03:38:48.046Z,99.90
2019-01-03T03:41:21.420Z,99.90
2019-01-03T03:43:56.756Z,99.90
2019-01-03T03:46:28.205Z,99.90
2019-01-03T03:49:00.806Z,99.90
2019-01-03T03:51:42.165Z,99.90
2019-01-03T03:54:13.654Z,99.90
2019-01-03T03:56:49.637Z,99.90
2019-01-03T03:59:36.845Z,99.90
2019-01-03T04:02:17.902Z,99.90
2019-01-03T04:05:06.005Z,99.90
2019-01-03T04:07:56.524Z,99.90
2019-01-03T04:10:38.437Z,99.90
2019-01-03T04:13:21.810Z,99.90
2019-01-03T04:15:57.414Z,99.90
2019-01-03T04:18:32.611Z,99.90
2019-01-03T04:21:23.357Z,99.90
2019-01-03T04:24:01.716Z,99.90
2019-01-03T04:26:35.955Z,99.90
2019-01-03T04:29:20.316Z,99.90
2019-01-03T04:31:55.716Z,99.90
2019-01-03T04:34:30.831Z,99.90
2019-01-03T04:37:02.324Z,99.90
2019-01-03T04:39:46.730Z,99.90
2019-01-03T04:42:25.357Z,99.90
2019-01-03T04:45:12.556Z,99.90
2019-01-03T04:47:45.846Z,99.90
2019-01-03T04:50:23.017Z,99.90
2019-01-03T04:52:55.636Z,99.90
2019-01-03T04:55:28.273Z,99.90
2019-01-03T04:58:13.727Z,99.90
2019-01-03T05:00:51.777Z,99.90
2019-01-03T05:03:24.357Z,99.90
2019-01-03T05:06:13.178Z,99.90
2019-01-03T05:08:45.817Z,99.90
2019-01-03T05:11:28.036Z,99.90
2019-01-03T05:14:00.570Z,99.90
2019-01-03T05:16:42.219Z,99.90
2019-01-03T05:19:16.354Z,99.90
2019-01-03T05:21:57.766Z,99.90
2019-01-03T05:24:44.239Z,99.90
2019-01-03T05:27:25.436Z,99.90
2019-01-03T05:30:09.886Z,99.90
2019-01-03T05:32:44.205Z,99.90
2019-01-03T05:35:27.799Z,99.90
2019-01-03T05:38:09.398Z,99.90
2019-01-03T05:41:00.046Z,99.90
2019-01-03T05:43:35.546Z,99.90
2019-01-03T05:46:08.158Z,99.90
2019-01-03T05:48:49.796Z,99.90
2019-01-03T05:51:23.734Z,99.90
2019-01-03T05:54:11.046Z,99.90
2019-01-03T05:56:47.957Z,99.90
2019-01-03T05:59:34.635Z,99.90
2019-01-03T06:02:09.967Z,99.90
2019-01-03T06:05:00.683Z,99.90
2019-01-03T06:07:47.966Z,99.90
2019-01-03T06:10:36.446Z,99.90
2019-01-03T06:13:09.088Z,99.90
2019-01-03T06:15:47.686Z,99.90
2019-01-03T06:18:19.129Z,99.90
2019-01-03T06:20:51.685Z,99.90
2019-01-03T06:23:27.260Z,99.90
2019-01-03T06:26:16.173Z,99.90
2019-01-03T06:28:51.316Z,99.90
2019-01-03T06:31:22.857Z,99.90
2019-01-03T06:34:07.957Z,99.90
2019-01-03T06:36:46.597Z,99.90
2019-01-03T06:39:19.877Z,99.90
2019-01-03T06:41:53.167Z,99.90
2019-01-03T06:44:32.204Z,99.90
2019-01-03T06:47:20.957Z,99.90
2019-01-03T06:50:09.476Z,99.90
2019-01-03T06:52:44.608Z,99.90
2019-01-03T06:55:32.746Z,99.90
2019-01-03T06:58:05.322Z,99.90
2019-01-03T07:00:46.758Z,99.90
2019-01-03T07:03:35.242Z,99.90
2019-01-03T07:06:24.156Z,99.90
2019-01-03T07:08:55.606Z,99.90
2019-01-03T07:11:28.085Z,99.90
2019-01-03T07:14:18.276Z,99.90
2019-01-03T07:17:02.490Z,99.90
2019-01-03T07:19:48.606Z,99.90
2019-01-03T07:22:21.166Z,99.90
2019-01-03T07:25:05.385Z,99.90
2019-01-03T07:27:56.063Z,99.90
2019-01-03T07:30:44.845Z,99.90
2019-01-03T07:33:20.317Z,99.90
2019-01-03T07:36:01.881Z,99.90
2019-01-03T07:38:49.565Z,99.90
2019-01-03T07:41:37.956Z,99.90
2019-01-03T07:44:18.161Z,99.90
2019-01-03T07:46:53.405Z,99.90
2019-01-03T07:49:28.996Z,99.90
2019-01-03T07:52:24.878Z,99.90
2019-01-03T07:54:56.500Z,99.90
2019-01-03T07:57:44.676Z,99.90
2019-01-03T08:00:24.036Z,99.90
2019-01-03T08:03:14.370Z,99.90
2019-01-03T08:06:02.014Z,99.90
2019-01-03T08:08:49.616Z,99.90
2019-01-03T08:11:38.316Z,99.90
2019-01-03T08:14:13.686Z,99.90
2019-01-03T08:17:01.010Z,99.90
2019-01-03T08:19:36.326Z,99.90
2019-01-03T08:22:25.169Z,99.90
2019-01-03T08:25:14.086Z,99.90
2019-01-03T08:27:49.356Z,99.90
2019-01-03T08:30:20.910Z,99.90
2019-01-03T08:33:10.305Z,99.90
2019-01-03T08:35:51.879Z,99.90
2019-01-03T08:38:40.468Z,99.90
2019-01-03T08:41:15.766Z,99.90
2019-01-03T08:44:05.038Z,99.90
2019-01-03T08:46:38.349Z,99.90
2019-01-03T08:49:29.054Z,99.90
2019-01-03T08:52:17.577Z,99.90
2019-01-03T08:54:50.153Z,99.90
2019-01-03T08:57:26.556Z,99.90
2019-01-03T09:00:08.082Z,99.90
2019-01-03T09:02:46.884Z,99.90
2019-01-03T09:05:27.269Z,99.90
2019-01-03T09:08:02.545Z,99.90
2019-01-03T09:10:40.177Z,98.60
2019-01-03T09:13:31.084Z,99.90
2019-01-03T09:16:02.544Z,99.90
2019-01-03T09:18:51.079Z,99.90
2019-01-03T09:21:35.561Z,99.90
2019-01-03T09:24:24.846Z,99.90
2019-01-03T09:27:13.585Z,99.90
2019-01-03T09:30:02.438Z,99.90
2019-01-03T09:32:46.773Z,99.90
2019-01-03T09:35:34.363Z,99.90
2019-01-03T09:38:11.582Z,99.90
2019-01-03T09:40:51.560Z,99.90
2019-01-03T09:43:40.089Z,99.90
2019-01-03T09:46:11.065Z,99.90
2019-01-03T09:48:42.092Z,99.90
2019-01-03T09:51:12.128Z,99.90
2019-01-03T09:53:43.802Z,99.90
2019-01-03T09:56:14.807Z,99.90
2019-01-03T09:58:45.940Z,99.90
2019-01-03T10:01:17.042Z,99.90
2019-01-03T10:03:48.041Z,99.90
2019-01-03T10:06:19.094Z,99.90
2019-01-03T10:08:50.880Z,97.00
2019-01-03T10:11:22.610Z,98.40
2019-01-03T10:13:53.737Z,98.30
2019-01-03T10:16:24.816Z,98.30
2019-01-03T10:18:55.928Z,98.10
2019-01-03T10:21:27.062Z,97.80
2019-01-03T10:23:58.050Z,97.70
2019-01-03T10:26:29.842Z,97.70
2019-01-03T10:29:00.889Z,97.90
2019-01-03T10:31:31.923Z,97.60
2019-01-03T10:34:03.044Z,98.10
2019-01-03T10:36:34.093Z,97.70
2019-01-03T10:39:04.494Z,96.90
2019-01-03T10:41:35.681Z,95.40
2019-01-03T10:44:06.130Z,97.40
2019-01-03T10:46:36.157Z,97.30
2019-01-03T10:49:07.810Z,95.60
2019-01-03T10:51:38.962Z,96.80
2019-01-03T10:55:14.721Z,95.50
2019-01-03T10:57:44.637Z,96.10
2019-01-03T11:00:14.643Z,96.30
2019-01-03T11:02:45.641Z,97.00
2019-01-03T11:05:15.530Z,96.00
2019-01-03T11:07:47.248Z,95.90
2019-01-03T11:10:18.265Z,94.60
2019-01-03T11:12:48.203Z,96.50
2019-01-03T11:15:19.199Z,96.90
2019-01-03T11:17:50.201Z,97.40
2019-01-03T11:20:21.100Z,96.50
2019-01-03T11:22:52.133Z,95.80
2019-01-03T11:25:23.141Z,94.80
2019-01-03T11:27:54.201Z,95.70
2019-01-03T11:30:24.172Z,95.90
2019-01-03T11:32:54.258Z,96.30
2019-01-03T11:35:25.359Z,96.10
2019-01-03T11:37:56.366Z,95.00
2019-01-03T11:40:27.634Z,93.80
2019-01-03T11:42:58.721Z,96.00
2019-01-03T11:45:30.242Z,94.00
2019-01-03T11:47:59.550Z,95.10
2019-01-03T11:50:30.567Z,94.80
2019-01-03T11:53:00.513Z,94.70
2019-01-03T11:55:31.626Z,94.30
2019-01-03T11:58:02.616Z,91.90
2019-01-03T12:00:33.681Z,91.40
2019-01-03T12:03:05.287Z,95.20
2019-01-03T12:05:35.058Z,94.80
2019-01-03T12:08:05.073Z,95.50
2019-01-03T12:10:36.199Z,93.20
2019-01-03T12:13:07.197Z,95.20
2019-01-03T12:15:38.177Z,93.80
2019-01-03T12:18:09.776Z,95.60
2019-01-03T12:20:40.793Z,94.80
2019-01-03T12:23:12.519Z,96.40
2019-01-03T12:25:43.838Z,95.80
2019-01-03T12:28:14.898Z,95.60
2019-01-03T12:30:44.923Z,95.20
2019-01-03T12:33:14.915Z,94.40
2019-01-03T12:35:46.037Z,94.30
2019-01-03T12:38:17.040Z,94.80
2019-01-03T12:40:48.008Z,94.20
2019-01-03T12:43:19.125Z,94.50
2019-01-03T12:45:50.218Z,92.30
2019-01-03T12:48:21.297Z,94.30
2019-01-03T12:50:52.372Z,95.60
2019-01-03T12:53:23.522Z,93.90
2019-01-03T12:55:54.488Z,94.80
2019-01-03T12:58:25.473Z,93.70
2019-01-03T13:00:55.451Z,95.00
2019-01-03T13:03:26.441Z,93.90
2019-01-03T13:05:57.448Z,93.70
2019-01-03T13:08:29.120Z,95.00
2019-01-03T13:11:00.102Z,93.70
2019-01-03T13:13:31.242Z,94.60
2019-01-03T13:16:02.310Z,94.90
2019-01-03T13:18:32.348Z,92.70
2019-01-03T13:21:03.527Z,95.50
2019-01-03T13:23:34.123Z,92.20
2019-01-03T13:26:05.160Z,94.00
2019-01-03T13:28:36.220Z,95.30
2019-01-03T13:31:07.966Z,94.80
2019-01-03T13:33:38.931Z,93.00
2019-01-03T13:36:09.983Z,95.90
2019-01-03T13:38:42.412Z,95.10
2019-01-03T13:41:13.573Z,93.10
2019-01-03T13:43:42.972Z,95.50
2019-01-03T13:46:12.842Z,95.40
2019-01-03T13:48:43.840Z,95.40
2019-01-03T13:51:14.809Z,95.10
2019-01-03T13:53:45.960Z,95.90
2019-01-03T13:56:17.002Z,96.20
2019-01-03T13:58:48.000Z,96.10
2019-01-03T14:01:19.031Z,95.10
2019-01-03T14:03:50.132Z,96.30
2019-01-03T14:06:21.251Z,96.10
2019-01-03T14:08:52.400Z,96.40
2019-01-03T14:11:24.123Z,94.40
2019-01-03T14:13:54.056Z,96.00
2019-01-03T14:16:25.096Z,96.20
2019-01-03T14:18:55.117Z,96.20
2019-01-03T14:21:26.800Z,96.30
2019-01-03T14:23:58.733Z,94.80
2019-01-03T14:26:29.950Z,95.90
2019-01-03T14:29:01.069Z,95.40
2019-01-03T14:31:32.994Z,96.20
2019-01-03T14:34:05.661Z,95.20
2019-01-03T14:36:36.772Z,94.10
2019-01-03T14:39:09.069Z,95.80
2019-01-03T14:41:40.374Z,96.60
2019-01-03T14:44:11.561Z,96.30
2019-01-03T14:46:45.039Z,95.00
2019-01-03T14:49:17.643Z,96.40
2019-01-03T14:51:48.684Z,93.90
2019-01-03T14:54:20.519Z,94.30
2019-01-03T14:56:50.484Z,95.30
2019-01-03T14:59:21.637Z,95.10
2019-01-03T15:01:52.807Z,95.10
2019-01-03T15:04:23.844Z,95.40
2019-01-03T15:06:54.923Z,95.30
2019-01-03T15:09:24.318Z,95.80
2019-01-03T15:11:58.782Z,95.80
2019-01-03T15:14:30.038Z,96.40
2019-01-03T15:17:03.404Z,96.10
2019-01-03T15:19:37.004Z,96.60
2019-01-03T15:22:09.184Z,95.80
2019-01-03T15:24:40.197Z,96.10
2019-01-03T15:27:10.233Z,96.00
2019-01-03T15:29:41.448Z,94.50
2019-01-03T15:32:12.510Z,96.70
2019-01-03T15:34:45.014Z,96.90
2019-01-03T15:37:15.053Z,95.80
2019-01-03T15:39:45.053Z,94.90
2019-01-03T15:42:16.995Z,96.50
2019-01-03T15:44:48.055Z,96.80
2019-01-03T15:47:19.205Z,95.70
2019-01-03T15:49:50.277Z,96.90
2019-01-03T15:52:20.894Z,95.30
2019-01-03T15:54:52.077Z,96.40
2019-01-03T15:57:23.174Z,96.10
2019-01-03T15:59:54.284Z,96.60
2019-01-03T16:02:24.281Z,94.80
2019-01-03T16:04:54.303Z,96.60
2019-01-03T16:07:26.085Z,95.50
2019-01-03T16:09:57.088Z,95.40
2019-01-03T16:12:28.209Z,97.40
2019-01-03T16:14:59.408Z,96.00
2019-01-03T16:17:30.461Z,96.30
2019-01-03T16:20:01.574Z,96.90
2019-01-03T16:22:34.150Z,95.80
2019-01-03T16:25:05.453Z,97.50
2019-01-03T16:27:36.646Z,96.10
2019-01-03T16:30:10.381Z,95.60
2019-01-03T16:32:42.182Z,97.20
2019-01-03T16:35:13.484Z,95.90
2019-01-03T16:37:44.606Z,95.40
2019-01-03T16:40:14.784Z,97.70
2019-01-03T16:42:46.601Z,96.90
2019-01-03T16:45:17.856Z,96.30
2019-01-03T16:47:49.003Z,97.40
2019-01-03T16:50:19.077Z,97.50
2019-01-03T16:52:50.097Z,97.30
2019-01-03T16:55:21.317Z,97.40
2019-01-03T16:57:51.517Z,96.70
2019-01-03T17:00:24.037Z,97.50
2019-01-03T17:02:54.012Z,95.60
2019-01-03T17:05:27.597Z,96.20
2019-01-03T17:07:57.737Z,96.30
2019-01-03T17:10:28.997Z,95.00
2019-01-03T17:13:00.717Z,97.80
2019-01-03T17:15:30.777Z,94.00
2019-01-03T17:18:03.332Z,96.50
2019-01-03T17:20:34.437Z,94.90
2019-01-03T17:23:05.805Z,96.10
2019-01-03T17:25:36.983Z,96.70
2019-01-03T17:28:08.157Z,97.10
2019-01-03T17:30:38.189Z,96.70
2019-01-03T17:33:10.725Z,97.40
2019-01-03T17:35:41.877Z,96.10
2019-01-03T17:38:12.933Z,95.30
2019-01-03T17:40:44.977Z,96.00
2019-01-03T17:43:15.911Z,95.60
2019-01-03T17:45:49.157Z,96.60
2019-01-03T17:48:20.140Z,96.50
2019-01-03T17:50:51.429Z,95.70
2019-01-03T17:53:23.398Z,97.00
2019-01-03T17:55:53.530Z,96.90
2019-01-03T17:58:26.083Z,95.90
2019-01-03T18:00:57.510Z,97.30
2019-01-03T18:03:28.968Z,95.30
2019-01-03T18:05:59.192Z,96.90
2019-01-03T18:08:29.360Z,97.30
2019-01-03T18:11:00.642Z,95.50
2019-01-03T18:13:33.906Z,96.10
2019-01-03T18:16:05.758Z,96.80
2019-01-03T18:18:36.767Z,96.60
2019-01-03T18:21:09.714Z,96.50
2019-01-03T18:23:41.552Z,96.30
2019-01-03T18:26:12.853Z,96.20
2019-01-03T18:28:43.917Z,96.40
2019-01-03T18:31:14.928Z,97.10
2019-01-03T18:33:46.119Z,96.00
2019-01-03T18:36:16.021Z,96.90
2019-01-03T18:38:47.353Z,96.00
2019-01-03T18:41:18.750Z,96.50
2019-01-03T18:43:50.159Z,97.00
2019-01-03T18:46:21.071Z,95.40
2019-01-03T18:48:53.112Z,95.30
2019-01-03T18:51:24.149Z,96.70
2019-01-03T18:53:54.431Z,96.30
2019-01-03T18:56:25.909Z,95.90
2019-01-03T18:58:57.799Z,96.90
2019-01-03T19:01:29.109Z,96.10
2019-01-03T19:03:59.429Z,97.00
2019-01-03T19:06:30.870Z,95.50
2019-01-03T19:09:02.317Z,96.00
2019-01-03T19:11:33.749Z,98.20
2019-01-03T19:14:05.194Z,96.80
2019-01-03T19:16:36.551Z,96.90
2019-01-03T19:19:08.069Z,96.90
2019-01-03T19:21:39.517Z,97.90
2019-01-03T19:24:10.952Z,96.30
2019-01-03T19:26:42.349Z,96.60
2019-01-03T19:29:13.764Z,96.20
2019-01-03T19:31:45.117Z,97.00
2019-01-03T19:34:16.469Z,97.40
2019-01-03T19:36:47.910Z,97.10
2019-01-03T19:39:19.293Z,98.00
2019-01-03T19:41:50.790Z,98.30
2019-01-03T19:44:24.674Z,97.20
2019-01-03T19:46:56.082Z,97.00
2019-01-03T19:49:27.509Z,96.70
2019-01-03T19:51:58.958Z,97.60
2019-01-03T19:54:30.439Z,98.40
2019-01-03T19:57:01.833Z,97.40
2019-01-03T19:59:33.998Z,97.30
2019-01-03T20:02:03.678Z,97.90
2019-01-03T20:04:35.001Z,98.70
2019-01-03T20:07:06.474Z,98.50
2019-01-03T20:09:38.550Z,98.90
2019-01-03T20:12:09.998Z,98.90
2019-01-03T20:14:42.157Z,97.20
2019-01-03T20:17:13.632Z,97.60
2019-01-03T20:19:43.950Z,97.70
2019-01-03T20:22:16.078Z,98.10
2019-01-03T20:24:46.281Z,97.80
2019-01-03T20:27:17.751Z,97.90
2019-01-03T20:29:49.431Z,99.00
2019-01-03T20:32:20.681Z,98.90
2019-01-03T20:34:52.110Z,99.40
2019-01-03T20:37:25.058Z,98.90
2019-01-03T20:39:57.029Z,99.30
2019-01-03T20:42:28.518Z,99.00
2019-01-03T20:44:59.923Z,98.80
2019-01-03T20:47:31.429Z,98.80
2019-01-03T20:50:02.912Z,98.80
2019-01-03T20:52:34.389Z,98.80
2019-01-03T20:55:05.848Z,98.40
2019-01-03T20:57:38.770Z,99.30
2019-01-03T21:00:14.167Z,98.90
2019-01-03T21:02:45.552Z,99.50
2019-01-03T21:05:15.878Z,98.50
2019-01-03T21:07:45.917Z,99.20
2019-01-03T21:10:18.017Z,98.60
2019-01-03T21:12:49.313Z,99.40
2019-01-03T21:15:19.477Z,99.30
2019-01-03T21:17:49.830Z,99.20
2019-01-03T21:20:21.269Z,99.90
2019-01-03T21:22:51.111Z,99.60
2019-01-03T21:25:22.399Z,99.90
2019-01-03T21:27:53.869Z,99.10
2019-01-03T21:30:25.989Z,98.90
2019-01-03T21:32:57.508Z,99.30
2019-01-03T21:35:28.981Z,99.60
2019-01-03T21:38:00.998Z,99.90
2019-01-03T21:40:34.797Z,99.30
2019-01-03T21:43:06.829Z,99.70
2019-01-03T21:45:37.189Z,99.80
2019-01-03T21:48:07.357Z,99.60
2019-01-03T21:50:38.869Z,99.70
2019-01-03T21:53:09.669Z,99.90
2019-01-03T21:55:39.843Z,99.80
2019-01-03T21:58:11.283Z,99.90
2019-01-03T22:00:42.669Z,99.90
2019-01-03T22:03:13.997Z,99.90
2019-01-03T22:05:45.388Z,99.90
2019-01-03T22:08:16.869Z,99.80
2019-01-03T22:10:49.029Z,99.90
2019-01-03T22:13:19.429Z,99.90
2019-01-03T22:15:50.755Z,99.90
2019-01-03T22:18:21.990Z,99.90
2019-01-03T22:20:53.477Z,99.70
2019-01-03T22:23:24.713Z,99.90
2019-01-03T22:25:54.907Z,99.90
2019-01-03T22:28:26.164Z,99.90
2019-01-03T22:30:57.310Z,99.90
2019-01-03T22:33:28.477Z,99.90
2019-01-03T22:35:58.478Z,99.90
2019-01-03T22:38:29.669Z,99.90
2019-01-03T22:41:00.800Z,99.90
2019-01-03T22:43:34.109Z,99.90
2019-01-03T22:46:05.349Z,99.90
2019-01-03T22:48:36.487Z,99.90
2019-01-03T22:51:07.727Z,99.90
2019-01-03T22:53:40.370Z,99.90
2019-01-03T22:56:11.479Z,99.90
2019-01-03T22:58:42.669Z,99.90
2019-01-03T23:01:13.882Z,99.90
2019-01-03T23:03:44.911Z,99.90
2019-01-03T23:06:16.109Z,99.90
2019-01-03T23:08:47.269Z,99.90
2019-01-03T23:11:17.317Z,99.90
2019-01-03T23:13:47.310Z,99.90
2019-01-03T23:16:18.437Z,99.90
2019-01-03T23:18:49.517Z,99.90
2019-01-03T23:21:20.798Z,99.90
2019-01-03T23:23:51.837Z,99.90
2019-01-03T23:26:22.989Z,99.90
2019-01-03T23:28:54.149Z,99.90
2019-01-03T23:31:25.270Z,99.90
2019-01-03T23:33:55.192Z,99.90
2019-01-03T23:36:26.277Z,99.90
2019-01-03T23:38:56.269Z,99.90
2019-01-03T23:41:27.269Z,99.90
2019-01-03T23:43:58.352Z,99.90
2019-01-03T23:46:28.509Z,99.90
2019-01-03T23:48:59.560Z,99.90
2019-01-03T23:51:30.642Z,99.90
2019-01-03T23:54:02.189Z,99.90
2019-01-03T23:56:33.358Z,99.90
2019-01-03T23:59:04.470Z,99.90
